Time;durP1;ratioP1;P1;durP2;ratioP2;P2;SDS_P1;SDS_P2;PMS_P1;PMS_P2;Temp;Humidity;BMP_temperature;BMP_pressure;BME280_temperature;BME280_humidity;BME280_pressure;Samples;Min_cycle;Max_cycle;Signal;HPM_P1;HPM_P2
2021/04/14 00:01:43;;;;;;;;;;;;;;;4.17;58.44;101796.30;1742772;81;20329;-74
2021/04/14 00:04:28;;;;;;;;;;;;;;;4.14;58.52;101797.53;1742985;81;20291;-74
2021/04/14 00:07:14;;;;;;;;;;;;;;;4.11;58.52;101792.31;1747934;81;20559;-74
2021/04/14 00:09:58;;;;;;;;;;;;;;;4.08;58.58;101790.08;1749296;81;20311;-74
2021/04/14 00:12:43;;;;;;;;;;;;;;;4.05;58.60;101788.30;1744061;81;20297;-74
2021/04/14 00:15:31;;;;;;;;;;;;;;;4.03;58.69;101789.08;1736448;81;21206;-75
2021/04/14 00:18:17;;;;;;;;;;;;;;;4.02;58.74;101787.34;1743749;81;20494;-74
2021/04/14 00:21:02;;;;;;;;;;;;;;;3.99;58.82;101780.44;1727233;82;20275;-74
2021/04/14 00:23:47;;;;;;;;;;;;;;;3.98;58.82;101787.66;1694333;83;20313;-74
2021/04/14 00:26:31;;;;;;;;;;;;;;;3.98;58.88;101780.84;1702499;84;20260;-74
2021/04/14 00:29:15;;;;;;;;;;;;;;;3.98;58.90;101781.27;1756205;81;20264;-74
2021/04/14 00:32:00;;;;;;;;;;;;;;;3.98;58.93;101783.41;1733336;81;20331;-74
2021/04/14 00:34:44;;;;;;;;;;;;;;;3.95;58.99;101785.01;1736560;81;20260;-74
2021/04/14 00:37:28;;;;;;;;;;;;;;;3.95;59.02;101782.45;1748885;81;20157;-74
2021/04/14 00:40:16;;;;;;;;;;;;;;;3.90;59.06;101781.03;1739116;81;20251;-74
2021/04/14 00:43:00;;;;;;;;;;;;;;;3.90;59.14;101777.61;1742556;81;20792;-74
2021/04/14 00:45:45;;;;;;;;;;;;;;;3.90;59.19;101778.47;1712115;81;20329;-74
2021/04/14 00:48:29;;;;;;;;;;;;;;;3.91;59.29;101776.37;1696537;82;20306;-74
2021/04/14 00:51:14;;;;;;;;;;;;;;;3.94;59.29;101771.76;1735948;81;20296;-75
2021/04/14 00:53:58;;;;;;;;;;;;;;;3.93;59.33;101771.30;1745880;81;20570;-75
2021/04/14 00:56:43;;;;;;;;;;;;;;;3.91;59.36;101767.41;1750572;80;20296;-75
2021/04/14 00:59:27;;;;;;;;;;;;;;;3.89;59.41;101774.18;1740132;80;20209;-75
2021/04/14 01:02:12;;;;;;;;;;;;;;;3.88;59.53;101769.88;1754701;81;20563;-75
2021/04/14 01:04:57;;;;;;;;;;;;;;;3.89;59.52;101773.31;1747327;81;20712;-74
2021/04/14 01:07:41;;;;;;;;;;;;;;;3.86;59.48;101766.83;1734595;81;20414;-74
2021/04/14 01:10:26;;;;;;;;;;;;;;;3.82;59.56;101768.42;1748286;81;20382;-74
2021/04/14 01:13:12;;;;;;;;;;;;;;;3.80;59.63;101770.48;1708128;82;20508;-74
2021/04/14 01:15:57;;;;;;;;;;;;;;;3.78;59.65;101773.40;1696968;83;20300;-75
2021/04/14 01:18:41;;;;;;;;;;;;;;;3.73;59.69;101769.42;1688200;84;20554;-74
2021/04/14 01:21:39;;;;;;;;;;;;;;;3.70;59.78;101768.05;1710751;83;20303;-73
2021/04/14 01:24:23;;;;;;;;;;;;;;;3.70;59.86;101775.72;1701205;83;20295;-74
2021/04/14 01:27:08;;;;;;;;;;;;;;;3.72;59.84;101777.92;1724998;82;20277;-74
2021/04/14 01:29:53;;;;;;;;;;;;;;;3.71;59.97;101782.98;1698284;83;20629;-74
2021/04/14 01:32:37;;;;;;;;;;;;;;;3.70;59.99;101775.72;1715280;82;20317;-74
2021/04/14 01:35:24;;;;;;;;;;;;;;;3.70;60.03;101771.89;1710791;82;20322;-74
2021/04/14 01:38:09;;;;;;;;;;;;;;;3.71;60.06;101772.34;1737576;81;21024;-74
2021/04/14 01:40:53;;;;;;;;;;;;;;;3.71;60.11;101769.78;1713410;82;20283;-74
2021/04/14 01:43:37;;;;;;;;;;;;;;;3.70;60.13;101772.30;1710234;81;20393;-74
2021/04/14 01:46:22;;;;;;;;;;;;;;;3.70;60.21;101771.89;1694428;83;20284;-74
2021/04/14 01:49:07;;;;;;;;;;;;;;;3.70;60.25;101769.33;1708437;83;20286;-74
2021/04/14 01:51:51;;;;;;;;;;;;;;;3.71;60.28;101766.36;1731880;81;20295;-74
2021/04/14 01:54:36;;;;;;;;;;;;;;;3.70;60.30;101757.81;1740475;81;20280;-74
2021/04/14 01:57:20;;;;;;;;;;;;;;;3.67;60.31;101755.17;1745043;81;20592;-74
2021/04/14 02:00:14;;;;;;;;;;;;;;;3.65;60.36;101760.65;1733860;81;20296;-74
2021/04/14 02:02:57;;;;;;;;;;;;;;;3.63;60.43;101765.75;1741709;81;20181;-74
2021/04/14 02:05:42;;;;;;;;;;;;;;;3.64;60.48;101759.78;1737894;81;20254;-74
2021/04/14 02:08:27;;;;;;;;;;;;;;;3.65;60.56;101760.23;1751689;81;20280;-74
2021/04/14 02:11:13;;;;;;;;;;;;;;;3.64;60.58;101763.61;1743961;81;20260;-74
2021/04/14 02:13:58;;;;;;;;;;;;;;;3.65;60.60;101764.08;1738440;81;20204;-74
2021/04/14 02:16:43;;;;;;;;;;;;;;;3.67;60.71;101757.72;1746721;81;20293;-74
2021/04/14 02:19:27;;;;;;;;;;;;;;;3.65;60.65;101760.23;1747013;81;20287;-74
2021/04/14 02:22:13;;;;;;;;;;;;;;;3.63;60.72;101758.08;1740973;81;20278;-74
2021/04/14 02:24:57;;;;;;;;;;;;;;;3.62;60.79;101747.39;1739941;81;20304;-74
2021/04/14 02:27:42;;;;;;;;;;;;;;;3.62;60.79;101747.39;1743917;81;20304;-74
2021/04/14 02:30:27;;;;;;;;;;;;;;;3.61;60.79;101753.33;1748806;81;20304;-74
2021/04/14 02:33:12;;;;;;;;;;;;;;;3.58;60.86;101747.25;1746906;81;20196;-74
2021/04/14 02:35:56;;;;;;;;;;;;;;;3.56;60.86;101744.64;1747826;81;20270;-74
2021/04/14 02:38:41;;;;;;;;;;;;;;;3.54;60.91;101742.86;1745597;81;20328;-74
2021/04/14 02:41:26;;;;;;;;;;;;;;;3.51;60.96;101747.47;1748466;80;20564;-74
2021/04/14 02:44:10;;;;;;;;;;;;;;;3.47;61.02;101748.20;1726428;82;20287;-74
2021/04/14 02:46:56;;;;;;;;;;;;;;;3.48;61.12;101751.20;1694318;83;20297;-74
2021/04/14 02:49:40;;;;;;;;;;;;;;;3.50;61.15;101752.13;1700922;81;20572;-74
2021/04/14 02:52:25;;;;;;;;;;;;;;;3.54;61.20;101750.12;1750074;80;20304;-74
2021/04/14 02:55:11;;;;;;;;;;;;;;;3.57;61.14;101750.62;1741923;80;20339;-74
2021/04/14 02:57:56;;;;;;;;;;;;;;;3.55;61.11;101750.98;1738347;81;20302;-74
2021/04/14 03:00:41;;;;;;;;;;;;;;;3.53;61.20;101753.50;1747537;80;20370;-74
2021/04/14 03:03:27;;;;;;;;;;;;;;;3.59;61.33;101752.41;1750882;81;20287;-74
2021/04/14 03:06:12;;;;;;;;;;;;;;;3.64;61.34;101745.71;1740049;81;20295;-74
2021/04/14 03:08:57;;;;;;;;;;;;;;;3.70;61.38;101743.75;1745199;81;20303;-75
2021/04/14 03:11:42;;;;;;;;;;;;;;;3.73;61.35;101741.70;1748079;81;20287;-74
2021/04/14 03:14:26;;;;;;;;;;;;;;;3.76;61.34;101739.23;1745182;81;20291;-74
2021/04/14 03:17:11;;;;;;;;;;;;;;;3.75;61.28;101737.49;1740817;81;20580;-74
2021/04/14 03:19:55;;;;;;;;;;;;;;;3.71;61.33;101739.09;1747649;80;20664;-75
2021/04/14 03:22:40;;;;;;;;;;;;;;;3.72;61.44;101734.44;1733524;81;20297;-74
2021/04/14 03:25:27;;;;;;;;;;;;;;;3.74;61.46;101737.04;1730059;81;20306;-74
2021/04/14 03:28:13;;;;;;;;;;;;;;;3.70;61.47;101734.80;1757165;80;20308;-74
2021/04/14 03:30:57;;;;;;;;;;;;;;;3.72;61.51;101737.41;1712296;82;20278;-74
2021/04/14 03:33:42;;;;;;;;;;;;;;;3.66;61.41;101740.23;1698793;83;20608;-74
2021/04/14 03:36:26;;;;;;;;;;;;;;;3.59;61.53;101740.03;1749112;81;20560;-75
2021/04/14 03:39:11;;;;;;;;;;;;;;;3.50;61.55;101739.34;1748162;81;20196;-75
2021/04/14 03:41:55;;;;;;;;;;;;;;;3.47;61.63;101739.66;1739669;82;20598;-74
2021/04/14 03:44:40;;;;;;;;;;;;;;;3.42;61.65;101738.64;1713242;82;20289;-74
2021/04/14 03:47:25;;;;;;;;;;;;;;;3.40;61.73;101739.00;1718300;82;20334;-74
2021/04/14 03:50:12;;;;;;;;;;;;;;;3.36;61.70;101743.16;1705574;82;20294;-74
2021/04/14 03:53:21;;;;;;;;;;;;;;;3.31;61.76;101748.53;1697953;83;20513;-74
2021/04/14 03:56:08;;;;;;;;;;;;;;;3.26;61.77;101743.69;1694831;83;20462;-74
2021/04/14 03:58:54;;;;;;;;;;;;;;;3.15;61.82;101747.58;1737592;81;20252;-74
2021/04/14 04:01:39;;;;;;;;;;;;;;;3.14;61.94;101749.27;1747090;81;20197;-74
2021/04/14 04:04:23;;;;;;;;;;;;;;;3.13;61.98;101752.64;1742716;80;20262;-74
2021/04/14 04:07:08;;;;;;;;;;;;;;;3.10;61.98;101755.54;1740554;80;20738;-73
2021/04/14 04:09:52;;;;;;;;;;;;;;;3.09;62.04;101753.80;1757002;80;20470;-74
2021/04/14 04:12:37;;;;;;;;;;;;;;;3.08;62.07;101751.66;1749280;80;20271;-74
2021/04/14 04:15:21;;;;;;;;;;;;;;;3.06;62.11;101755.84;1751711;80;20185;-74
2021/04/14 04:18:06;;;;;;;;;;;;;;;3.02;62.14;101757.84;1752560;80;20256;-74
2021/04/14 04:20:51;;;;;;;;;;;;;;;2.98;62.18;101760.70;1753415;80;20194;-74
2021/04/14 04:23:35;;;;;;;;;;;;;;;2.97;62.22;101762.80;1741892;80;20183;-74
2021/04/14 04:26:20;;;;;;;;;;;;;;;2.98;62.34;101761.11;1748290;80;20177;-74
2021/04/14 04:29:05;;;;;;;;;;;;;;;2.99;62.34;101765.00;1712637;81;38019;-74
2021/04/14 04:31:50;;;;;;;;;;;;;;;2.97;62.35;101763.20;1740314;81;20575;-74
2021/04/14 04:34:34;;;;;;;;;;;;;;;2.98;62.45;101765.81;1730844;81;20506;-74
2021/04/14 04:37:19;;;;;;;;;;;;;;;2.98;62.45;101766.22;1742565;81;20448;-74
2021/04/14 04:40:05;;;;;;;;;;;;;;;2.97;62.48;101764.08;1743288;81;20295;-74
2021/04/14 04:42:50;;;;;;;;;;;;;;;3.02;62.56;101770.62;1737074;81;20685;-74
2021/04/14 04:45:35;;;;;;;;;;;;;;;3.06;62.57;101767.34;1747803;80;20327;-74
2021/04/14 04:48:20;;;;;;;;;;;;;;;3.07;62.58;101772.05;1743469;80;20481;-75
2021/04/14 04:51:05;;;;;;;;;;;;;;;3.08;62.62;101775.06;1738559;80;20531;-74
2021/04/14 04:53:49;;;;;;;;;;;;;;;3.09;62.70;101772.97;1736520;80;20296;-74
2021/04/14 04:56:34;;;;;;;;;;;;;;;3.11;62.68;101774.75;1738017;80;20286;-75
2021/04/14 04:59:19;;;;;;;;;;;;;;;3.11;62.74;101772.61;1737006;80;20938;-75
2021/04/14 05:02:03;;;;;;;;;;;;;;;3.13;62.64;101772.22;1754405;80;20299;-74
2021/04/14 05:04:48;;;;;;;;;;;;;;;3.11;62.81;101777.31;1746249;80;20200;-75
2021/04/14 05:07:33;;;;;;;;;;;;;;;3.11;62.88;101770.92;1751617;81;20276;-75
2021/04/14 05:10:19;;;;;;;;;;;;;;;3.13;62.85;101768.38;1743332;80;20549;-75
2021/04/14 05:13:04;;;;;;;;;;;;;;;3.15;62.94;101768.89;1748273;80;20303;-75
2021/04/14 05:15:49;;;;;;;;;;;;;;;3.18;63.00;101765.57;1729845;81;20490;-75
2021/04/14 05:18:34;;;;;;;;;;;;;;;3.19;62.97;101768.17;1737164;82;20279;-75
2021/04/14 05:21:21;;;;;;;;;;;;;;;3.20;62.96;101763.52;1739853;80;20287;-74
2021/04/14 05:24:07;;;;;;;;;;;;;;;3.18;63.05;101767.72;1751520;80;20500;-74
2021/04/14 05:26:52;;;;;;;;;;;;;;;3.17;63.06;101766.39;1748408;80;20308;-74
2021/04/14 05:29:36;;;;;;;;;;;;;;;3.19;63.17;101772.01;1747586;80;20220;-75
2021/04/14 05:32:21;;;;;;;;;;;;;;;3.21;63.21;101771.65;1748054;80;20427;-74
2021/04/14 05:35:09;;;;;;;;;;;;;;;3.27;63.29;101777.38;1747713;80;20272;-75
2021/04/14 05:37:53;;;;;;;;;;;;;;;3.30;63.29;101773.23;1741292;81;20298;-74
2021/04/14 05:40:38;;;;;;;;;;;;;;;3.35;63.31;101773.78;1752654;80;20650;-74
2021/04/14 05:43:29;;;;;;;;;;;;;;;3.40;63.33;101774.39;1749798;80;20299;-74
2021/04/14 05:46:16;;;;;;;;;;;;;;;3.45;63.40;101774.12;1742735;80;20604;-73
2021/04/14 05:49:01;;;;;;;;;;;;;;;3.52;63.43;101780.30;1750753;80;20302;-74
2021/04/14 05:51:45;;;;;;;;;;;;;;;3.56;63.35;101780.85;1711816;82;20325;-75
2021/04/14 05:54:30;;;;;;;;;;;;;;;3.58;63.48;101783.92;1671569;83;20279;-74
2021/04/14 05:57:15;;;;;;;;;;;;;;;3.62;63.47;101784.47;1733169;80;20623;-75
2021/04/14 05:59:59;;;;;;;;;;;;;;;3.64;63.36;101785.36;1745928;80;20363;-75
2021/04/14 06:02:44;;;;;;;;;;;;;;;3.69;63.51;101784.22;1745760;80;20232;-75
2021/04/14 06:05:29;;;;;;;;;;;;;;;3.69;63.41;101784.62;1720092;81;20304;-75
2021/04/14 06:08:13;;;;;;;;;;;;;;;3.66;63.49;101791.39;1703510;83;21047;-75
2021/04/14 06:10:59;;;;;;;;;;;;;;;3.70;63.64;101788.92;1743321;80;20280;-75
2021/04/14 06:13:44;;;;;;;;;;;;;;;3.77;63.58;101789.57;1748226;80;20262;-75
2021/04/14 06:16:29;;;;;;;;;;;;;;;3.81;63.59;101788.84;1736204;80;20271;-75
2021/04/14 06:19:13;;;;;;;;;;;;;;;3.85;63.77;101780.44;1752644;80;20283;-74
2021/04/14 06:21:58;;;;;;;;;;;;;;;3.92;63.68;101783.23;1749225;80;20188;-76
2021/04/14 06:24:42;;;;;;;;;;;;;;;4.01;63.67;101783.91;1756354;80;20258;-77
2021/04/14 06:27:38;;;;;;;;;;;;;;;4.08;63.79;101784.96;1739704;80;20172;-76
2021/04/14 06:30:20;;;;;;;;;;;;;;;4.21;63.91;101787.02;1753561;80;20256;-74
2021/04/14 06:33:08;;;;;;;;;;;;;;;4.35;63.86;101785.72;1753302;80;20278;-74
2021/04/14 06:35:53;;;;;;;;;;;;;;;4.50;63.96;101782.31;1744396;80;20201;-74
2021/04/14 06:38:44;;;;;;;;;;;;;;;4.67;63.87;101787.02;1730317;80;20264;-74
2021/04/14 06:41:42;;;;;;;;;;;;;;;4.79;63.89;101787.31;1750184;80;20717;-74
2021/04/14 06:44:38;;;;;;;;;;;;;;;4.93;63.88;101790.70;1744842;80;20185;-74
2021/04/14 06:47:29;;;;;;;;;;;;;;;5.08;63.98;101788.08;1745869;80;20284;-75
2021/04/14 06:50:16;;;;;;;;;;;;;;;5.22;63.82;101799.09;1739768;80;20332;-73
2021/04/14 06:53:21;;;;;;;;;;;;;;;5.28;63.76;101793.25;1731192;80;20287;-74
2021/04/14 06:56:09;;;;;;;;;;;;;;;5.40;63.97;101793.97;1749214;80;21191;-74
2021/04/14 06:59:02;;;;;;;;;;;;;;;5.53;63.82;101792.14;1729827;80;20330;-75
2021/04/14 07:01:55;;;;;;;;;;;;;;;5.62;63.88;101793.23;1746422;80;20165;-74
2021/04/14 07:04:43;;;;;;;;;;;;;;;5.73;63.80;101793.86;1756452;80;20285;-75
2021/04/14 07:07:30;;;;;;;;;;;;;;;5.77;63.78;101799.52;1747241;80;20279;-74
2021/04/14 07:10:30;;;;;;;;;;;;;;;5.78;63.83;101791.84;1747986;80;20296;-76
2021/04/14 07:13:14;;;;;;;;;;;;;;;5.83;63.79;101791.53;1737117;80;20219;-74
2021/04/14 07:16:06;;;;;;;;;;;;;;;5.89;63.80;101786.56;1735592;80;20307;-74
2021/04/14 07:18:56;;;;;;;;;;;;;;;5.89;63.85;101786.98;1729460;80;20302;-74
2021/04/14 07:21:44;;;;;;;;;;;;;;;5.75;63.58;101784.08;1732958;80;20292;-73
2021/04/14 07:24:32;;;;;;;;;;;;;;;5.69;63.85;101786.95;1737624;80;20260;-72
2021/04/14 07:27:29;;;;;;;;;;;;;;;5.78;63.96;101788.41;1754725;80;20619;-73
2021/04/14 07:30:24;;;;;;;;;;;;;;;5.82;63.99;101788.93;1749538;80;20436;-73
2021/04/14 07:33:16;;;;;;;;;;;;;;;5.87;63.90;101790.77;1757153;80;21077;-74
2021/04/14 07:36:10;;;;;;;;;;;;;;;5.90;63.92;101784.87;1751739;80;20279;-73
2021/04/14 07:39:12;;;;;;;;;;;;;;;5.98;64.16;101784.62;1748114;81;20301;-73
2021/04/14 07:42:34;;;;;;;;;;;;;;;6.14;64.08;101787.96;1763304;81;20301;-73
2021/04/14 07:45:27;;;;;;;;;;;;;;;6.30;64.11;101786.55;1741280;80;20633;-73
2021/04/14 07:48:18;;;;;;;;;;;;;;;6.49;64.05;101786.08;1745904;80;20302;-73
2021/04/14 07:51:03;;;;;;;;;;;;;;;6.60;64.06;101785.87;1742105;80;20323;-74
2021/04/14 07:54:06;;;;;;;;;;;;;;;6.67;63.87;101779.56;1713913;80;20581;-73
2021/04/14 07:56:54;;;;;;;;;;;;;;;6.69;63.82;101782.60;1737357;80;20281;-73
2021/04/14 07:59:41;;;;;;;;;;;;;;;6.78;63.94;101787.02;1740670;80;20256;-76
2021/04/14 08:02:31;;;;;;;;;;;;;;;6.84;63.81;101787.13;1735526;80;20272;-75
2021/04/14 08:05:30;;;;;;;;;;;;;;;6.87;63.95;101784.61;1741254;80;20252;-75
2021/04/14 08:08:23;;;;;;;;;;;;;;;6.96;63.73;101780.50;1721208;81;20565;-75
2021/04/14 08:11:10;;;;;;;;;;;;;;;7.00;63.74;101788.27;1752096;80;20274;-75
2021/04/14 08:14:14;;;;;;;;;;;;;;;7.05;63.70;101781.50;1749971;80;20264;-75
2021/04/14 08:17:03;;;;;;;;;;;;;;;7.13;63.57;101783.36;1739582;80;20279;-76
2021/04/14 08:19:44;;;;;;;;;;;;;;;7.18;63.76;101782.16;1747519;80;20253;-74
2021/04/14 08:22:29;;;;;;;;;;;;;;;7.36;63.87;101779.85;1737523;80;20276;-73
2021/04/14 08:25:13;;;;;;;;;;;;;;;7.52;63.60;101781.83;1738694;80;20199;-74
2021/04/14 08:28:00;;;;;;;;;;;;;;;7.64;63.77;101786.30;1754094;80;20231;-73
2021/04/14 08:30:44;;;;;;;;;;;;;;;7.72;63.64;101783.41;1739157;80;20201;-73
2021/04/14 08:33:29;;;;;;;;;;;;;;;7.89;63.66;101783.61;1741132;80;20264;-73
2021/04/14 08:36:28;;;;;;;;;;;;;;;8.00;63.48;101784.62;1743707;80;20265;-73
2021/04/14 08:39:22;;;;;;;;;;;;;;;8.11;63.34;101784.34;1741453;80;20167;-73
2021/04/14 08:42:13;;;;;;;;;;;;;;;8.14;63.10;101784.81;1736750;80;20515;-73
2021/04/14 08:45:19;;;;;;;;;;;;;;;8.11;63.17;101786.92;1745652;80;20513;-73
2021/04/14 08:48:22;;;;;;;;;;;;;;;8.24;63.24;101779.80;1740837;80;20261;-74
2021/04/14 08:51:09;;;;;;;;;;;;;;;8.34;62.92;101777.33;1732948;80;20276;-74
2021/04/14 08:53:56;;;;;;;;;;;;;;;8.36;63.02;101781.66;1742058;80;20585;-74
2021/04/14 08:56:40;;;;;;;;;;;;;;;8.51;63.10;101780.97;1743558;80;20301;-74
2021/04/14 08:59:26;;;;;;;;;;;;;;;8.63;62.98;101780.68;1735902;80;20555;-74
2021/04/14 09:02:14;;;;;;;;;;;;;;;8.71;62.98;101775.61;1734241;80;20325;-75
2021/04/14 09:05:00;;;;;;;;;;;;;;;8.84;62.88;101776.14;1740951;80;20578;-74
2021/04/14 09:07:46;;;;;;;;;;;;;;;8.98;63.00;101770.24;1729936;80;20322;-74
2021/04/14 09:10:48;;;;;;;;;;;;;;;9.00;62.62;101767.25;1738905;80;20339;-76
2021/04/14 09:13:47;;;;;;;;;;;;;;;8.93;62.69;101767.62;1748049;80;20177;-76
2021/04/14 09:16:38;;;;;;;;;;;;;;;8.93;62.76;101764.62;1694359;80;20513;-75
2021/04/14 09:19:35;;;;;;;;;;;;;;;8.87;62.56;101761.98;1739209;80;20294;-74
2021/04/14 09:22:23;;;;;;;;;;;;;;;8.90;62.71;101755.56;1740710;80;20189;-74
2021/04/14 09:25:10;;;;;;;;;;;;;;;8.99;62.62;101756.06;1734527;80;20288;-74
2021/04/14 09:28:01;;;;;;;;;;;;;;;8.93;62.25;101749.56;1731570;80;20168;-74
2021/04/14 09:31:10;;;;;;;;;;;;;;;8.82;62.23;101750.78;1739975;81;20628;-74
2021/04/14 09:33:58;;;;;;;;;;;;;;;8.80;62.26;101750.33;1747004;80;20480;-74
2021/04/14 09:36:50;;;;;;;;;;;;;;;8.78;62.16;101758.05;1736686;80;20251;-74
2021/04/14 09:39:46;;;;;;;;;;;;;;;8.73;61.89;101756.28;1736198;80;20300;-74
2021/04/14 09:42:37;;;;;;;;;;;;;;;8.64;62.10;101753.18;1740991;81;20269;-74
2021/04/14 09:45:31;;;;;;;;;;;;;;;8.69;61.84;101754.52;1735884;80;20252;-74
2021/04/14 09:48:17;;;;;;;;;;;;;;;8.68;61.86;101748.92;1743004;80;20179;-74
2021/04/14 09:51:01;;;;;;;;;;;;;;;8.71;61.84;101751.11;1735000;80;20578;-74
2021/04/14 09:53:47;;;;;;;;;;;;;;;8.69;61.70;101748.94;1728750;80;20286;-75
2021/04/14 09:56:33;;;;;;;;;;;;;;;8.67;61.47;101751.06;1744635;80;20206;-75
2021/04/14 09:59:21;;;;;;;;;;;;;;;8.66;61.44;101753.20;1744040;80;20283;-74
2021/04/14 10:02:13;;;;;;;;;;;;;;;8.69;61.48;101750.66;1738203;80;20271;-74
2021/04/14 10:04:59;;;;;;;;;;;;;;;8.76;61.44;101747.28;1745727;80;20422;-74
2021/04/14 10:07:45;;;;;;;;;;;;;;;8.78;61.31;101740.42;1738122;80;20267;-74
2021/04/14 10:10:41;;;;;;;;;;;;;;;8.79;61.02;101746.89;1732868;80;20263;-74
2021/04/14 10:13:28;;;;;;;;;;;;;;;8.75;61.05;101745.13;1708925;80;20254;-74
2021/04/14 10:16:16;;;;;;;;;;;;;;;8.73;60.98;101744.67;1738041;80;20171;-75
2021/04/14 10:19:03;;;;;;;;;;;;;;;8.70;60.72;101738.20;1741535;80;20249;-74
2021/04/14 10:21:48;;;;;;;;;;;;;;;8.76;60.84;101737.83;1734306;80;20747;-74
2021/04/14 10:24:32;;;;;;;;;;;;;;;8.92;60.85;101746.55;1738991;80;20263;-75
2021/04/14 10:27:19;;;;;;;;;;;;;;;8.97;60.62;101743.58;1729163;80;20515;-73
2021/04/14 10:30:09;;;;;;;;;;;;;;;8.93;60.47;101741.40;1733637;80;20191;-74
2021/04/14 10:33:02;;;;;;;;;;;;;;;9.02;60.60;101743.20;1742288;80;20280;-74
2021/04/14 10:35:49;;;;;;;;;;;;;;;9.12;60.42;101738.55;1742414;80;20296;-74
2021/04/14 10:38:35;;;;;;;;;;;;;;;9.06;60.09;101740.22;1744027;80;20302;-74
2021/04/14 10:41:22;;;;;;;;;;;;;;;8.95;60.13;101742.28;1729827;80;20455;-73
2021/04/14 10:44:16;;;;;;;;;;;;;;;8.96;60.09;101739.27;1733663;80;20245;-74
2021/04/14 10:47:03;;;;;;;;;;;;;;;9.03;60.14;101747.50;1737530;80;20205;-74
2021/04/14 10:49:48;;;;;;;;;;;;;;;9.00;60.04;101741.45;1712123;81;20255;-74
2021/04/14 10:52:33;;;;;;;;;;;;;;;9.06;59.92;101741.08;1736508;80;20256;-74
2021/04/14 10:55:21;;;;;;;;;;;;;;;9.18;59.91;101737.31;1738017;80;20267;-74
2021/04/14 10:58:07;;;;;;;;;;;;;;;9.32;59.83;101727.09;1741557;80;20264;-74
2021/04/14 11:00:52;;;;;;;;;;;;;;;9.37;59.65;101730.96;1745959;80;20195;-74
2021/04/14 11:03:37;;;;;;;;;;;;;;;9.46;59.53;101727.16;1749319;80;20299;-74
2021/04/14 11:06:22;;;;;;;;;;;;;;;9.47;59.36;101730.17;1751359;80;20300;-74
2021/04/14 11:09:07;;;;;;;;;;;;;;;9.43;59.32;101732.30;1738466;80;20314;-75
2021/04/14 11:11:53;;;;;;;;;;;;;;;9.41;59.31;101719.80;1743410;80;20684;-74
2021/04/14 11:14:40;;;;;;;;;;;;;;;9.43;59.19;101717.67;1727653;80;20304;-74
2021/04/14 11:17:33;;;;;;;;;;;;;;;9.45;58.93;101720.27;1747836;80;20351;-74
2021/04/14 11:20:22;;;;;;;;;;;;;;;9.51;59.01;101724.17;1736945;80;20731;-74
2021/04/14 11:23:08;;;;;;;;;;;;;;;9.53;58.83;101716.02;1734788;80;20314;-75
2021/04/14 11:26:20;;;;;;;;;;;;;;;9.59;58.72;101715.63;1739835;80;20524;-74
2021/04/14 11:29:07;;;;;;;;;;;;;;;9.55;58.52;101707.42;1737633;80;20314;-76
2021/04/14 11:31:53;;;;;;;;;;;;;;;9.48;58.40;101714.69;1750733;80;20292;-75
2021/04/14 11:34:38;;;;;;;;;;;;;;;9.51;58.38;101716.43;1748761;80;20271;-75
2021/04/14 11:37:26;;;;;;;;;;;;;;;9.50;58.09;101706.95;1735057;80;20497;-76
2021/04/14 11:40:23;;;;;;;;;;;;;;;9.54;58.21;101713.44;1742432;80;20608;-76
2021/04/14 11:43:35;;;;;;;;;;;;;;;9.58;58.00;101715.19;1744948;80;20301;-76
2021/04/14 11:46:38;;;;;;;;;;;;;;;9.64;58.05;101711.77;1745965;80;20278;-75
2021/04/14 11:49:31;;;;;;;;;;;;;;;9.74;58.28;101710.97;1730892;80;20187;-75
2021/04/14 11:52:40;;;;;;;;;;;;;;;9.86;57.97;101692.95;1747388;80;20280;-75
2021/04/14 11:55:31;;;;;;;;;;;;;;;9.94;57.63;101705.86;1755527;80;20187;-75
2021/04/14 11:58:31;;;;;;;;;;;;;;;9.82;57.48;101705.41;1756444;80;20315;-75
2021/04/14 12:01:21;;;;;;;;;;;;;;;9.79;57.37;101692.48;1748854;80;20450;-75
2021/04/14 12:04:13;;;;;;;;;;;;;;;9.89;57.34;101695.51;1769312;80;20278;-75
2021/04/14 12:06:58;;;;;;;;;;;;;;;9.91;57.50;101692.50;1748714;80;20171;-75
2021/04/14 12:09:42;;;;;;;;;;;;;;;9.94;57.27;101700.70;1758951;80;20301;-75
2021/04/14 12:12:26;;;;;;;;;;;;;;;10.06;57.33;101703.33;1739961;80;20491;-75
2021/04/14 12:15:12;;;;;;;;;;;;;;;10.04;56.82;101698.58;1736276;81;20458;-75
2021/04/14 12:17:56;;;;;;;;;;;;;;;9.87;56.98;101694.67;1736674;80;20278;-75
2021/04/14 12:20:41;;;;;;;;;;;;;;;9.73;56.90;101688.58;1762178;80;20256;-75
2021/04/14 12:23:25;;;;;;;;;;;;;;;9.72;56.75;101690.72;1758764;80;20256;-75
2021/04/14 12:26:10;;;;;;;;;;;;;;;9.77;56.73;101695.48;1749474;79;20327;-75
2021/04/14 12:28:55;;;;;;;;;;;;;;;9.80;56.79;101692.92;1755540;80;20313;-75
2021/04/14 12:31:40;;;;;;;;;;;;;;;9.85;56.56;101692.52;1727106;81;20303;-76
2021/04/14 12:34:24;;;;;;;;;;;;;;;9.92;56.57;101686.91;1761299;80;20613;-76
2021/04/14 12:37:09;;;;;;;;;;;;;;;9.87;56.31;101694.67;1737751;81;20303;-76
2021/04/14 12:39:54;;;;;;;;;;;;;;;9.82;56.34;101682.59;1745074;80;20602;-76
2021/04/14 12:42:39;;;;;;;;;;;;;;;9.89;56.33;101690.34;1755204;79;20326;-76
2021/04/14 12:45:40;;;;;;;;;;;;;;;10.07;56.44;101687.39;1757678;80;20296;-76
2021/04/14 12:48:27;;;;;;;;;;;;;;;10.23;56.35;101686.62;1766058;80;20305;-76
2021/04/14 12:51:30;;;;;;;;;;;;;;;10.35;56.22;101685.78;1767314;80;20307;-76
2021/04/14 12:54:36;;;;;;;;;;;;;;;10.27;55.78;101692.23;1766838;80;20295;-76
2021/04/14 12:57:27;;;;;;;;;;;;;;;10.13;55.58;101679.23;1754796;80;20311;-75
2021/04/14 13:00:15;;;;;;;;;;;;;;;10.05;55.66;101680.93;1741135;80;20131;-76
2021/04/14 13:03:15;;;;;;;;;;;;;;;9.93;55.62;101688.20;1744228;80;20262;-76
2021/04/14 13:06:03;;;;;;;;;;;;;;;9.81;55.69;101685.61;1733999;80;20292;-76
2021/04/14 13:08:50;;;;;;;;;;;;;;;9.74;55.51;101681.27;1743527;80;20298;-75
2021/04/14 13:11:48;;;;;;;;;;;;;;;9.72;55.22;101679.10;1717756;82;20641;-76
2021/04/14 13:14:33;;;;;;;;;;;;;;;9.70;55.25;101683.83;1702594;82;20317;-75
2021/04/14 13:17:19;;;;;;;;;;;;;;;9.76;55.11;101686.02;1683252;83;20558;-75
2021/04/14 13:20:05;;;;;;;;;;;;;;;9.75;55.00;101683.42;1684383;83;20557;-75
2021/04/14 13:22:53;;;;;;;;;;;;;;;9.65;54.70;101681.65;1745490;80;20535;-75
2021/04/14 13:25:44;;;;;;;;;;;;;;;9.54;54.68;101677.72;1726577;82;20276;-75
2021/04/14 13:28:40;;;;;;;;;;;;;;;9.49;54.77;101680.70;1714719;82;20550;-75
2021/04/14 13:31:34;;;;;;;;;;;;;;;9.46;54.64;101685.84;1695785;82;20281;-76
2021/04/14 13:34:40;;;;;;;;;;;;;;;9.30;54.47;101684.92;1746497;80;20300;-76
2021/04/14 13:37:28;;;;;;;;;;;;;;;9.21;54.36;101680.56;1713332;82;20279;-76
2021/04/14 13:40:25;;;;;;;;;;;;;;;9.22;54.53;101679.70;1726063;82;20499;-76
2021/04/14 13:43:23;;;;;;;;;;;;;;;9.21;54.38;101675.83;1733695;80;20183;-76
2021/04/14 13:46:10;;;;;;;;;;;;;;;9.31;54.43;101681.48;1742898;81;20328;-76
2021/04/14 13:49:06;;;;;;;;;;;;;;;9.39;54.24;101671.17;1741899;81;20272;-76
2021/04/14 13:52:01;;;;;;;;;;;;;;;9.40;54.41;101668.61;1732497;82;20185;-76
2021/04/14 13:54:46;;;;;;;;;;;;;;;9.36;54.05;101671.19;1740958;80;20219;-76
2021/04/14 13:57:40;;;;;;;;;;;;;;;9.27;54.13;101668.98;1733213;82;20285;-76
2021/04/14 14:00:30;;;;;;;;;;;;;;;9.26;54.09;101671.56;1724205;81;20169;-76
2021/04/14 14:03:14;;;;;;;;;;;;;;;9.19;53.89;101669.80;1711069;82;20185;-76
2021/04/14 14:06:01;;;;;;;;;;;;;;;9.17;53.96;101667.20;1708498;82;20188;-76
2021/04/14 14:08:47;;;;;;;;;;;;;;;9.26;54.02;101663.39;1732742;80;20193;-76
2021/04/14 14:11:34;;;;;;;;;;;;;;;9.36;53.78;101666.03;1753994;80;20253;-76
2021/04/14 14:14:19;;;;;;;;;;;;;;;9.39;53.71;101660.85;1749704;80;20197;-76
2021/04/14 14:17:03;;;;;;;;;;;;;;;9.43;53.65;101665.17;1757633;80;20485;-76
2021/04/14 14:19:49;;;;;;;;;;;;;;;9.38;53.66;101661.70;1748078;80;20256;-76
2021/04/14 14:22:35;;;;;;;;;;;;;;;9.36;53.57;101669.44;1753722;80;20276;-76
2021/04/14 14:25:19;;;;;;;;;;;;;;;9.26;53.45;101660.81;1747121;80;20286;-76
2021/04/14 14:28:04;;;;;;;;;;;;;;;9.18;53.48;101662.91;1748141;80;20252;-75
2021/04/14 14:30:58;;;;;;;;;;;;;;;9.13;53.45;101668.45;1751009;80;20505;-75
2021/04/14 14:33:43;;;;;;;;;;;;;;;9.09;53.44;101657.68;1757788;80;20193;-75